sensor_id;sensor_type;location;lat;lon;timestamp;pressure;altitude;pressure_sealevel;temperature;humidity
65054;BME280;51639;47.828;35.038;2022-09-17T00:02:31;99419.19;;;15.82;100.00
65054;BME280;51639;47.828;35.038;2022-09-17T00:17:32;99423.38;;;15.68;100.00
65054;BME280;51639;47.828;35.038;2022-09-17T00:32:34;99433.38;;;15.56;100.00
65054;BME280;51639;47.828;35.038;2022-09-17T00:47:41;99444.41;;;15.62;100.00
65054;BME280;51639;47.828;35.038;2022-09-17T01:02:44;99449.13;;;15.61;100.00
65054;BME280;51639;47.828;35.038;2022-09-17T01:33:25;99461.09;;;15.64;100.00
65054;BME280;51639;47.828;35.038;2022-09-17T01:48:32;99474.72;;;15.73;100.00
65054;BME280;51639;47.828;35.038;2022-09-17T02:03:40;99494.66;;;15.88;100.00
65054;BME280;51639;47.828;35.038;2022-09-17T02:18:49;99473.91;;;15.82;100.00
65054;BME280;51639;47.828;35.038;2022-09-17T02:33:59;99466.81;;;15.75;100.00
65054;BME280;51639;47.828;35.038;2022-09-17T03:04:33;99495.97;;;15.78;100.00
65054;BME280;51639;47.828;35.038;2022-09-17T03:19:40;99487.94;;;15.75;100.00
65054;BME280;51639;47.828;35.038;2022-09-17T03:34:42;99483.34;;;15.81;100.00
65054;BME280;51639;47.828;35.038;2022-09-17T03:49:44;99493.66;;;16.00;100.00
65054;BME280;51639;47.828;35.038;2022-09-17T04:04:46;99505.97;;;16.20;100.00
65054;BME280;51639;47.828;35.038;2022-09-17T04:19:47;99520.69;;;16.37;100.00
65054;BME280;51639;47.828;35.038;2022-09-17T04:34:50;99531.75;;;16.87;100.00
65054;BME280;51639;47.828;35.038;2022-09-17T04:49:52;99517.25;;;17.71;100.00
65054;BME280;51639;47.828;35.038;2022-09-17T05:04:54;99529.81;;;18.24;100.00
65054;BME280;51639;47.828;35.038;2022-09-17T05:19:57;99521.69;;;18.35;100.00
65054;BME280;51639;47.828;35.038;2022-09-17T05:34:59;99516.97;;;18.67;100.00
65054;BME280;51639;47.828;35.038;2022-09-17T05:50:06;99522.16;;;19.28;100.00
65054;BME280;51639;47.828;35.038;2022-09-17T06:05:08;99513.84;;;20.86;100.00
65054;BME280;51639;47.828;35.038;2022-09-17T06:20:10;99533.25;;;21.71;100.00
65054;BME280;51639;47.828;35.038;2022-09-17T06:35:12;99534.41;;;23.05;100.00
65054;BME280;51639;47.828;35.038;2022-09-17T06:50:14;99529.66;;;23.73;91.64
65054;BME280;51639;47.828;35.038;2022-09-17T07:05:16;99528.31;;;23.36;94.18
65054;BME280;51639;47.828;35.038;2022-09-17T07:20:18;99515.34;;;23.88;93.89
65054;BME280;51639;47.828;35.038;2022-09-17T07:35:20;99544.41;;;22.84;95.38
65054;BME280;51639;47.828;35.038;2022-09-17T07:50:22;99517.22;;;22.88;95.62
65054;BME280;51639;47.828;35.038;2022-09-17T08:05:25;99508.53;;;22.37;97.24
65054;BME280;51639;47.828;35.038;2022-09-17T08:20:26;99495.56;;;22.56;91.64
65054;BME280;51639;47.828;35.038;2022-09-17T08:35:29;99490.84;;;22.16;92.51
65054;BME280;51639;47.828;35.038;2022-09-17T08:50:33;99478.41;;;22.63;94.98
65054;BME280;51639;47.828;35.038;2022-09-17T09:20:56;99472.22;;;23.06;86.33
65054;BME280;51639;47.828;35.038;2022-09-17T09:36:12;99472.28;;;22.10;91.56
65054;BME280;51639;47.828;35.038;2022-09-17T10:07:06;99435.66;;;22.64;93.74
65054;BME280;51639;47.828;35.038;2022-09-17T10:22:25;99429.38;;;22.34;91.13
65054;BME280;51639;47.828;35.038;2022-09-17T10:37:45;99436.34;;;22.10;87.83
65054;BME280;51639;47.828;35.038;2022-09-17T10:52:56;99448.41;;;22.07;92.88
65054;BME280;51639;47.828;35.038;2022-09-17T11:39:14;99418.72;;;22.14;94.72
65054;BME280;51639;47.828;35.038;2022-09-17T11:54:32;99376.47;;;23.16;78.65
65054;BME280;51639;47.828;35.038;2022-09-17T12:09:40;99358.09;;;23.75;88.67
65054;BME280;51639;47.828;35.038;2022-09-17T12:24:49;99343.50;;;23.56;83.05
65054;BME280;51639;47.828;35.038;2022-09-17T12:40:43;99300.59;;;23.43;84.43
65054;BME280;51639;47.828;35.038;2022-09-17T13:26:04;99230.75;;;22.81;86.31
65054;BME280;51639;47.828;35.038;2022-09-17T13:41:17;99227.56;;;22.71;89.42
65054;BME280;51639;47.828;35.038;2022-09-17T13:56:31;99213.22;;;22.54;89.37
65054;BME280;51639;47.828;35.038;2022-09-17T14:11:36;99208.22;;;21.79;99.89
65054;BME280;51639;47.828;35.038;2022-09-17T14:41:53;99177.97;;;21.38;100.00
65054;BME280;51639;47.828;35.038;2022-09-17T15:12:00;99145.72;;;20.40;100.00
65054;BME280;51639;47.828;35.038;2022-09-17T15:27:09;99122.44;;;20.41;100.00
65054;BME280;51639;47.828;35.038;2022-09-17T15:57:20;99108.34;;;20.50;100.00
65054;BME280;51639;47.828;35.038;2022-09-17T16:12:25;99112.53;;;20.62;100.00
65054;BME280;51639;47.828;35.038;2022-09-17T16:27:29;99104.97;;;20.68;100.00
65054;BME280;51639;47.828;35.038;2022-09-17T16:42:33;99105.69;;;20.74;100.00
65054;BME280;51639;47.828;35.038;2022-09-17T16:57:35;99097.97;;;20.67;100.00
65054;BME280;51639;47.828;35.038;2022-09-17T17:12:37;99098.22;;;20.64;100.00
65054;BME280;51639;47.828;35.038;2022-09-17T17:27:39;99113.06;;;20.55;100.00
65054;BME280;51639;47.828;35.038;2022-09-17T17:42:42;99117.59;;;20.53;100.00
65054;BME280;51639;47.828;35.038;2022-09-17T17:57:44;99115.63;;;20.48;100.00
65054;BME280;51639;47.828;35.038;2022-09-17T18:12:46;99120.31;;;20.06;100.00
65054;BME280;51639;47.828;35.038;2022-09-17T18:27:51;99118.13;;;19.82;100.00
65054;BME280;51639;47.828;35.038;2022-09-17T18:42:53;99091.56;;;19.85;100.00
65054;BME280;51639;47.828;35.038;2022-09-17T18:57:55;99076.84;;;19.82;100.00
65054;BME280;51639;47.828;35.038;2022-09-17T19:12:57;99044.56;;;19.77;100.00
65054;BME280;51639;47.828;35.038;2022-09-17T19:27:59;99046.81;;;19.73;100.00
65054;BME280;51639;47.828;35.038;2022-09-17T19:43:01;99029.38;;;19.54;100.00
65054;BME280;51639;47.828;35.038;2022-09-17T19:58:03;99021.84;;;19.43;100.00
65054;BME280;51639;47.828;35.038;2022-09-17T20:13:05;99023.34;;;19.38;100.00
65054;BME280;51639;47.828;35.038;2022-09-17T20:28:08;99078.13;;;19.42;100.00
65054;BME280;51639;47.828;35.038;2022-09-17T20:43:10;99039.91;;;19.27;100.00
65054;BME280;51639;47.828;35.038;2022-09-17T20:58:11;98998.69;;;19.11;100.00
65054;BME280;51639;47.828;35.038;2022-09-17T21:13:13;99004.19;;;19.11;100.00
65054;BME280;51639;47.828;35.038;2022-09-17T21:28:15;99015.44;;;19.07;100.00
65054;BME280;51639;47.828;35.038;2022-09-17T21:43:21;98992.94;;;19.03;100.00
65054;BME280;51639;47.828;35.038;2022-09-17T21:58:22;98980.69;;;18.93;100.00
65054;BME280;51639;47.828;35.038;2022-09-17T22:13:24;98958.44;;;18.91;100.00
65054;BME280;51639;47.828;35.038;2022-09-17T22:28:26;98957.44;;;18.94;100.00
65054;BME280;51639;47.828;35.038;2022-09-17T22:43:28;98952.19;;;18.96;100.00
65054;BME280;51639;47.828;35.038;2022-09-17T22:58:30;98937.19;;;18.97;100.00
65054;BME280;51639;47.828;35.038;2022-09-17T23:13:33;98912.44;;;18.97;100.00
65054;BME280;51639;47.828;35.038;2022-09-17T23:28:36;98883.94;;;19.00;100.00
65054;BME280;51639;47.828;35.038;2022-09-17T23:43:38;98847.94;;;18.98;100.00
65054;BME280;51639;47.828;35.038;2022-09-17T23:58:40;98825.94;;;18.98;100.00
